createdAt,value
2018-07-30T00:00:55.375Z,1006.78
2018-07-30T00:01:55.294Z,1006.78
2018-07-30T00:02:55.285Z,1006.85
2018-07-30T00:03:55.277Z,1006.81
2018-07-30T00:04:55.279Z,1006.80
2018-07-30T00:05:55.321Z,1006.79
2018-07-30T00:06:55.250Z,1006.76
2018-07-30T00:07:55.238Z,1006.79
2018-07-30T00:08:55.225Z,1006.84
2018-07-30T00:09:55.214Z,1006.84
2018-07-30T00:10:55.640Z,1006.80
2018-07-30T00:11:55.194Z,1006.85
2018-07-30T00:12:55.183Z,1006.82
2018-07-30T00:13:55.170Z,1006.87
2018-07-30T00:14:55.164Z,1006.84
2018-07-30T00:15:55.220Z,1006.83
2018-07-30T00:16:55.142Z,1006.85
2018-07-30T00:17:55.134Z,1006.86
2018-07-30T00:18:55.122Z,1006.87
2018-07-30T00:19:55.115Z,1006.92
2018-07-30T00:20:55.164Z,1006.91
2018-07-30T00:21:55.092Z,1006.93
2018-07-30T00:22:55.078Z,1006.94
2018-07-30T00:23:55.072Z,1006.95
2018-07-30T00:24:55.059Z,1006.98
2018-07-30T00:25:55.114Z,1006.92
2018-07-30T00:26:55.039Z,1006.93
2018-07-30T00:27:55.026Z,1006.95
2018-07-30T00:28:55.023Z,1006.93
2018-07-30T00:29:55.009Z,1006.93
2018-07-30T00:30:55.062Z,1006.95
2018-07-30T00:31:55.551Z,1006.93
2018-07-30T00:32:54.976Z,1006.97
2018-07-30T00:33:54.965Z,1006.96
2018-07-30T00:34:54.956Z,1006.95
2018-07-30T00:35:54.948Z,1006.97
2018-07-30T00:36:55.003Z,1006.91
2018-07-30T00:37:54.929Z,1006.97
2018-07-30T00:38:54.911Z,1006.95
2018-07-30T00:39:54.901Z,1006.95
2018-07-30T00:40:54.892Z,1006.95
2018-07-30T00:41:54.961Z,1006.93
2018-07-30T00:42:54.873Z,1006.92
2018-07-30T00:43:54.862Z,1006.96
2018-07-30T00:44:54.851Z,1006.91
2018-07-30T00:45:54.842Z,1006.93
2018-07-30T00:46:54.897Z,1006.89
2018-07-30T00:47:54.828Z,1006.89
2018-07-30T00:48:54.809Z,1006.97
2018-07-30T00:49:54.801Z,1006.94
2018-07-30T00:50:54.790Z,1006.90
2018-07-30T00:51:54.845Z,1006.92
2018-07-30T00:52:55.549Z,1006.93
2018-07-30T00:53:54.756Z,1006.83
2018-07-30T00:54:54.765Z,1006.88
2018-07-30T00:55:54.740Z,1006.87
2018-07-30T00:56:55.132Z,1006.89
2018-07-30T00:57:54.724Z,1006.89
2018-07-30T00:58:54.707Z,1006.82
2018-07-30T00:59:54.695Z,1006.89
2018-07-30T01:00:54.685Z,1006.88
2018-07-30T01:01:54.743Z,1006.94
2018-07-30T01:02:54.668Z,1006.91
2018-07-30T01:03:54.654Z,1006.87
2018-07-30T01:04:54.643Z,1006.86
2018-07-30T01:05:54.632Z,1006.92
2018-07-30T01:06:54.692Z,1006.90
2018-07-30T01:07:54.616Z,1006.90
2018-07-30T01:08:54.601Z,1006.91
2018-07-30T01:09:54.593Z,1006.99
2018-07-30T01:10:54.582Z,1006.97
2018-07-30T01:11:54.638Z,1006.95
2018-07-30T01:12:54.563Z,1006.93
2018-07-30T01:13:54.551Z,1006.94
2018-07-30T01:14:54.540Z,1006.98
2018-07-30T01:16:02.649Z,1007.01
2018-07-30T01:16:54.584Z,1007.00
2018-07-30T01:17:54.520Z,1006.98
2018-07-30T01:18:54.496Z,1006.94
2018-07-30T01:19:54.491Z,1006.97
2018-07-30T01:20:54.477Z,1006.92
2018-07-30T01:21:54.529Z,1006.95
2018-07-30T01:22:54.457Z,1006.90
2018-07-30T01:23:54.447Z,1006.88
2018-07-30T01:24:54.438Z,1006.89
2018-07-30T01:25:54.421Z,1006.87
2018-07-30T01:26:54.479Z,1006.90
2018-07-30T01:27:54.405Z,1006.84
2018-07-30T01:28:54.394Z,1006.84
2018-07-30T01:29:54.388Z,1006.84
2018-07-30T01:30:54.374Z,1006.86
2018-07-30T01:31:54.427Z,1006.87
2018-07-30T01:32:54.352Z,1006.82
2018-07-30T01:33:54.344Z,1006.83
2018-07-30T01:34:54.333Z,1006.80
2018-07-30T01:35:54.325Z,1006.80
2018-07-30T01:36:54.658Z,1006.82
2018-07-30T01:37:54.303Z,1006.77
2018-07-30T01:38:54.288Z,1006.81
2018-07-30T01:39:54.277Z,1006.79
2018-07-30T01:40:54.266Z,1006.76
2018-07-30T01:41:54.324Z,1006.77
2018-07-30T01:42:54.247Z,1006.74
2018-07-30T01:43:54.236Z,1006.79
2018-07-30T01:44:54.225Z,1006.86
2018-07-30T01:45:54.216Z,1006.80
2018-07-30T01:46:54.264Z,1006.82
2018-07-30T01:47:54.192Z,1006.83
2018-07-30T01:48:54.186Z,1006.83
2018-07-30T01:49:54.175Z,1006.80
2018-07-30T01:50:54.161Z,1006.83
2018-07-30T01:51:54.217Z,1006.87
2018-07-30T01:52:54.144Z,1006.85
2018-07-30T01:53:54.131Z,1006.92
2018-07-30T01:54:54.121Z,1006.97
2018-07-30T01:55:54.110Z,1006.90
2018-07-30T01:56:54.164Z,1006.88
2018-07-30T01:57:56.080Z,1006.98
2018-07-30T01:58:54.082Z,1006.97
2018-07-30T01:59:54.067Z,1006.91
2018-07-30T02:00:54.059Z,1006.93
2018-07-30T02:01:54.114Z,1006.93
2018-07-30T02:02:54.041Z,1006.96
2018-07-30T02:03:54.026Z,1006.97
2018-07-30T02:04:54.031Z,1006.98
2018-07-30T02:05:54.009Z,1006.95
2018-07-30T02:06:54.056Z,1006.99
2018-07-30T02:07:53.986Z,1006.97
2018-07-30T02:08:53.976Z,1006.99
2018-07-30T02:09:53.962Z,1006.96
2018-07-30T02:10:53.956Z,1007.04
2018-07-30T02:11:54.011Z,1007.03
2018-07-30T02:12:53.929Z,1006.99
2018-07-30T02:13:53.918Z,1007.10
2018-07-30T02:14:53.912Z,1007.03
2018-07-30T02:15:53.898Z,1007.04
2018-07-30T02:16:53.961Z,1006.99
2018-07-30T02:17:53.876Z,1007.04
2018-07-30T02:18:53.865Z,1007.01
2018-07-30T02:19:54.578Z,1007.10
2018-07-30T02:20:53.848Z,1007.05
2018-07-30T02:21:53.838Z,1007.08
2018-07-30T02:22:53.892Z,1007.16
2018-07-30T02:23:53.813Z,1007.10
2018-07-30T02:24:53.807Z,1007.09
2018-07-30T02:25:53.793Z,1007.04
2018-07-30T02:26:53.783Z,1007.03
2018-07-30T02:27:53.838Z,1007.08
2018-07-30T02:28:53.766Z,1007.09
2018-07-30T02:29:53.755Z,1007.08
2018-07-30T02:30:53.745Z,1007.10
2018-07-30T02:31:53.730Z,1007.14
2018-07-30T02:32:53.793Z,1007.15
2018-07-30T02:33:53.709Z,1007.09
2018-07-30T02:34:53.700Z,1007.09
2018-07-30T02:35:53.686Z,1007.15
2018-07-30T02:36:53.681Z,1007.08
2018-07-30T02:37:53.738Z,1007.20
2018-07-30T02:38:53.655Z,1007.17
2018-07-30T02:39:53.647Z,1007.26
2018-07-30T02:40:54.577Z,1007.19
2018-07-30T02:41:53.625Z,1007.16
2018-07-30T02:42:53.688Z,1007.18
2018-07-30T02:43:53.603Z,1007.21
2018-07-30T02:44:53.592Z,1007.12
2018-07-30T02:45:53.583Z,1007.18
2018-07-30T02:46:53.573Z,1007.16
2018-07-30T02:47:53.630Z,1007.21
2018-07-30T02:48:53.550Z,1007.11
2018-07-30T02:49:53.541Z,1007.19
2018-07-30T02:50:53.530Z,1007.20
2018-07-30T02:51:53.521Z,1007.17
2018-07-30T02:52:53.575Z,1007.12
2018-07-30T02:53:53.502Z,1007.13
2018-07-30T02:54:53.489Z,1007.16
2018-07-30T02:55:53.475Z,1007.15
2018-07-30T02:56:53.467Z,1007.14
2018-07-30T02:57:53.517Z,1007.15
2018-07-30T02:58:53.446Z,1007.17
2018-07-30T02:59:53.437Z,1007.16
2018-07-30T03:00:53.425Z,1007.19
2018-07-30T03:01:54.077Z,1007.13
2018-07-30T03:02:53.469Z,1007.19
2018-07-30T03:03:53.392Z,1007.13
2018-07-30T03:04:53.394Z,1007.13
2018-07-30T03:05:53.373Z,1007.20
2018-07-30T03:06:53.362Z,1007.18
2018-07-30T03:07:53.417Z,1007.25
2018-07-30T03:08:53.344Z,1007.23
2018-07-30T03:09:53.329Z,1007.18
2018-07-30T03:10:53.318Z,1007.26
2018-07-30T03:11:53.307Z,1007.23
2018-07-30T03:12:53.373Z,1007.22
2018-07-30T03:13:53.290Z,1007.25
2018-07-30T03:14:53.276Z,1007.22
2018-07-30T03:15:53.265Z,1007.26
2018-07-30T03:16:53.254Z,1007.25
2018-07-30T03:17:53.316Z,1007.16
2018-07-30T03:18:53.237Z,1007.21
2018-07-30T03:19:53.224Z,1007.24
2018-07-30T03:20:53.215Z,1007.22
2018-07-30T03:21:53.205Z,1007.18
2018-07-30T03:22:53.655Z,1007.19
2018-07-30T03:23:53.185Z,1007.22
2018-07-30T03:24:53.174Z,1007.19
2018-07-30T03:25:53.163Z,1007.21
2018-07-30T03:26:53.152Z,1007.17
2018-07-30T03:27:53.207Z,1007.24
2018-07-30T03:28:53.231Z,1007.21
2018-07-30T03:29:53.121Z,1007.18
2018-07-30T03:30:53.108Z,1007.23
2018-07-30T03:31:53.096Z,1007.22
2018-07-30T03:32:53.155Z,1007.23
2018-07-30T03:33:53.075Z,1007.26
2018-07-30T03:34:53.067Z,1007.23
2018-07-30T03:35:53.055Z,1007.21
2018-07-30T03:36:53.044Z,1007.24
2018-07-30T03:37:53.102Z,1007.23
2018-07-30T03:38:53.024Z,1007.27
2018-07-30T03:39:53.013Z,1007.25
2018-07-30T03:40:53.003Z,1007.30
2018-07-30T03:41:52.995Z,1007.32
2018-07-30T03:43:01.692Z,1007.33
2018-07-30T03:44:00.496Z,1007.28
2018-07-30T03:45:22.049Z,1007.30
2018-07-30T03:45:52.950Z,1007.27
2018-07-30T03:46:52.939Z,1007.27
2018-07-30T03:47:53.026Z,1007.30
2018-07-30T03:48:52.919Z,1007.30
2018-07-30T03:49:52.919Z,1007.31
2018-07-30T03:50:52.895Z,1007.28
2018-07-30T03:51:52.883Z,1007.29
2018-07-30T03:52:52.942Z,1007.27
2018-07-30T03:53:52.864Z,1007.30
2018-07-30T03:54:52.853Z,1007.35
2018-07-30T03:55:52.845Z,1007.29
2018-07-30T03:56:52.830Z,1007.35
2018-07-30T03:57:52.823Z,1007.38
2018-07-30T03:58:53.265Z,1007.39
2018-07-30T03:59:52.802Z,1007.38
2018-07-30T04:00:52.792Z,1007.35
2018-07-30T04:01:52.784Z,1007.36
2018-07-30T04:02:52.769Z,1007.43
2018-07-30T04:03:52.825Z,1007.47
2018-07-30T04:04:52.750Z,1007.40
2018-07-30T04:05:52.741Z,1007.48
2018-07-30T04:06:52.726Z,1007.53
2018-07-30T04:07:52.724Z,1007.46
2018-07-30T04:08:52.770Z,1007.47
2018-07-30T04:09:52.695Z,1007.53
2018-07-30T04:10:52.687Z,1007.55
2018-07-30T04:11:52.681Z,1007.54
2018-07-30T04:12:52.664Z,1007.53
2018-07-30T04:13:52.718Z,1007.52
2018-07-30T04:14:52.640Z,1007.58
2018-07-30T04:15:52.632Z,1007.63
2018-07-30T04:16:52.622Z,1007.57
2018-07-30T04:17:52.609Z,1007.53
2018-07-30T04:18:52.667Z,1007.62
2018-07-30T04:19:52.590Z,1007.62
2018-07-30T04:20:52.576Z,1007.65
2018-07-30T04:21:52.565Z,1007.67
2018-07-30T04:22:52.554Z,1007.69
2018-07-30T04:23:52.612Z,1007.70
2018-07-30T04:24:52.541Z,1007.67
2018-07-30T04:25:52.526Z,1007.70
2018-07-30T04:26:52.516Z,1007.72
2018-07-30T04:27:52.503Z,1007.76
2018-07-30T04:28:52.560Z,1007.78
2018-07-30T04:29:52.482Z,1007.76
2018-07-30T04:30:52.493Z,1007.76
2018-07-30T04:31:52.460Z,1007.77
2018-07-30T04:32:52.448Z,1007.72
2018-07-30T04:33:52.506Z,1007.67
2018-07-30T04:34:52.429Z,1007.67
2018-07-30T04:35:52.419Z,1007.72
2018-07-30T04:36:52.408Z,1007.63
2018-07-30T04:37:52.411Z,1007.69
2018-07-30T04:38:52.451Z,1007.68
2018-07-30T04:39:52.377Z,1007.69
2018-07-30T04:40:52.362Z,1007.70
2018-07-30T04:41:52.355Z,1007.67
2018-07-30T04:42:52.343Z,1007.66
2018-07-30T04:43:52.415Z,1007.70
2018-07-30T04:44:52.323Z,1007.74
2018-07-30T04:45:52.313Z,1007.77
2018-07-30T04:46:52.299Z,1007.70
2018-07-30T04:47:52.296Z,1007.77
2018-07-30T04:48:52.348Z,1007.75
2018-07-30T04:49:52.271Z,1007.76
2018-07-30T04:50:52.260Z,1007.76
2018-07-30T04:51:52.249Z,1007.79
2018-07-30T04:52:52.240Z,1007.76
2018-07-30T04:53:52.288Z,1007.69
2018-07-30T04:54:52.216Z,1007.72
2018-07-30T04:55:52.205Z,1007.73
2018-07-30T04:56:52.210Z,1007.70
2018-07-30T04:57:52.196Z,1007.66
2018-07-30T04:58:52.240Z,1007.61
2018-07-30T04:59:52.164Z,1007.59
2018-07-30T05:00:52.158Z,1007.68
2018-07-30T05:01:52.141Z,1007.62
2018-07-30T05:02:52.133Z,1007.68
2018-07-30T05:03:52.220Z,1007.64
2018-07-30T05:04:52.108Z,1007.68
2018-07-30T05:05:52.108Z,1007.61
2018-07-30T05:06:52.094Z,1007.66
2018-07-30T05:07:52.078Z,1007.68
2018-07-30T05:08:52.258Z,1007.65
2018-07-30T05:09:52.056Z,1007.66
2018-07-30T05:10:52.045Z,1007.70
2018-07-30T05:11:52.034Z,1007.75
2018-07-30T05:12:52.026Z,1007.76
2018-07-30T05:13:52.095Z,1007.77
2018-07-30T05:14:52.014Z,1007.71
2018-07-30T05:15:51.998Z,1007.71
2018-07-30T05:16:51.984Z,1007.74
2018-07-30T05:17:51.973Z,1007.78
2018-07-30T05:18:52.031Z,1007.75
2018-07-30T05:19:51.951Z,1007.77
2018-07-30T05:20:51.948Z,1007.71
2018-07-30T05:21:51.937Z,1007.76
2018-07-30T05:22:51.920Z,1007.75
2018-07-30T05:23:51.975Z,1007.81
2018-07-30T05:24:51.898Z,1007.74
2018-07-30T05:25:51.906Z,1007.82
2018-07-30T05:26:51.934Z,1007.79
2018-07-30T05:27:51.873Z,1007.82
2018-07-30T05:28:51.925Z,1007.75
2018-07-30T05:29:52.675Z,1007.81
2018-07-30T05:30:51.841Z,1007.81
2018-07-30T05:31:51.826Z,1007.75
2018-07-30T05:32:51.818Z,1007.72
2018-07-30T05:33:51.889Z,1007.80
2018-07-30T05:34:51.794Z,1007.75
2018-07-30T05:35:51.782Z,1007.69
2018-07-30T05:36:51.774Z,1007.74
2018-07-30T05:37:51.762Z,1007.76
2018-07-30T05:38:51.822Z,1007.78
2018-07-30T05:39:51.742Z,1007.80
2018-07-30T05:40:51.737Z,1007.77
2018-07-30T05:41:52.675Z,1007.79
2018-07-30T05:42:51.786Z,1007.78
2018-07-30T05:43:51.701Z,1007.69
2018-07-30T05:44:51.751Z,1007.80
2018-07-30T05:45:51.685Z,1007.85
2018-07-30T05:46:51.674Z,1007.86
2018-07-30T05:47:51.663Z,1007.88
2018-07-30T05:48:51.654Z,1007.85
2018-07-30T05:49:51.704Z,1007.88
2018-07-30T05:50:52.177Z,1007.85
2018-07-30T05:51:51.618Z,1007.82
2018-07-30T05:52:51.618Z,1007.85
2018-07-30T05:53:51.601Z,1007.85
2018-07-30T05:54:51.657Z,1007.86
2018-07-30T05:55:51.574Z,1007.79
2018-07-30T05:56:51.570Z,1007.84
2018-07-30T05:57:51.555Z,1007.78
2018-07-30T05:58:51.559Z,1007.83
2018-07-30T05:59:51.787Z,1007.87
2018-07-30T06:00:51.524Z,1007.86
2018-07-30T06:01:51.514Z,1007.88
2018-07-30T06:02:59.078Z,1007.92
2018-07-30T06:03:51.495Z,1007.95
2018-07-30T06:04:51.543Z,1007.93
2018-07-30T06:05:51.471Z,1007.94
2018-07-30T06:06:51.461Z,1007.90
2018-07-30T06:07:51.447Z,1007.88
2018-07-30T06:08:51.441Z,1007.92
2018-07-30T06:09:51.496Z,1007.86
2018-07-30T06:10:51.417Z,1007.92
2018-07-30T06:11:51.408Z,1007.91
2018-07-30T06:12:51.394Z,1007.85
2018-07-30T06:13:51.383Z,1007.93
2018-07-30T06:14:51.446Z,1007.90
2018-07-30T06:15:51.363Z,1007.93
2018-07-30T06:16:51.355Z,1007.93
2018-07-30T06:17:51.344Z,1007.87
2018-07-30T06:18:51.336Z,1007.88
2018-07-30T06:19:51.388Z,1007.91
2018-07-30T06:20:51.365Z,1007.89
2018-07-30T06:21:51.303Z,1007.92
2018-07-30T06:22:51.298Z,1007.96
2018-07-30T06:23:52.213Z,1007.99
2018-07-30T06:24:51.338Z,1007.93
2018-07-30T06:25:51.263Z,1007.95
2018-07-30T06:26:51.256Z,1007.98
2018-07-30T06:27:51.242Z,1007.98
2018-07-30T06:28:51.228Z,1007.99
2018-07-30T06:29:51.288Z,1008.02
2018-07-30T06:30:51.229Z,1008.05
2018-07-30T06:31:51.259Z,1008.03
2018-07-30T06:32:51.189Z,1007.98
2018-07-30T06:33:51.189Z,1008.05
2018-07-30T06:34:51.230Z,1008.11
2018-07-30T06:35:51.154Z,1008.07
2018-07-30T06:36:51.147Z,1008.09
2018-07-30T06:37:51.146Z,1008.16
2018-07-30T06:38:51.125Z,1008.17
2018-07-30T06:39:51.180Z,1008.20
2018-07-30T06:40:51.106Z,1008.11
2018-07-30T06:41:51.092Z,1008.06
2018-07-30T06:42:51.091Z,1008.08
2018-07-30T06:43:51.074Z,1008.08
2018-07-30T06:44:51.289Z,1008.17
2018-07-30T06:45:51.054Z,1008.20
2018-07-30T06:46:51.039Z,1008.10
2018-07-30T06:47:51.087Z,1008.03
2018-07-30T06:48:51.027Z,1008.07
2018-07-30T06:49:51.081Z,1008.07
2018-07-30T06:50:51.002Z,1008.04
2018-07-30T06:51:51.003Z,1008.03
2018-07-30T06:52:50.981Z,1008.01
2018-07-30T06:53:50.970Z,1008.08
2018-07-30T06:54:51.027Z,1008.04
2018-07-30T06:55:50.947Z,1008.06
2018-07-30T06:56:50.944Z,1008.09
2018-07-30T06:57:50.936Z,1008.05
2018-07-30T06:58:50.919Z,1008.06
2018-07-30T06:59:50.977Z,1008.11
2018-07-30T07:00:50.901Z,1008.21
2018-07-30T07:01:50.886Z,1008.22
2018-07-30T07:02:50.881Z,1008.22
2018-07-30T07:03:50.894Z,1008.24
2018-07-30T07:04:50.924Z,1008.23
2018-07-30T07:05:51.712Z,1008.24
2018-07-30T07:06:50.843Z,1008.24
2018-07-30T07:07:50.828Z,1008.31
2018-07-30T07:08:50.815Z,1008.27
2018-07-30T07:09:50.879Z,1008.28
2018-07-30T07:10:50.839Z,1008.27
2018-07-30T07:11:50.803Z,1008.32
2018-07-30T07:12:50.778Z,1008.32
2018-07-30T07:13:50.767Z,1008.34
2018-07-30T07:14:50.820Z,1008.34
2018-07-30T07:15:50.758Z,1008.33
2018-07-30T07:16:50.786Z,1008.34
2018-07-30T07:17:50.723Z,1008.43
2018-07-30T07:18:50.715Z,1008.46
2018-07-30T07:19:50.781Z,1008.41
2018-07-30T07:20:50.693Z,1008.47
2018-07-30T07:21:50.715Z,1008.46
2018-07-30T07:22:50.674Z,1008.45
2018-07-30T07:23:50.662Z,1008.35
2018-07-30T07:24:50.667Z,1008.39
2018-07-30T07:25:50.713Z,1008.45
2018-07-30T07:26:51.222Z,1008.36
2018-07-30T07:27:50.637Z,1008.39
2018-07-30T07:28:58.716Z,1008.39
2018-07-30T07:29:58.794Z,1008.41
2018-07-30T07:30:58.726Z,1008.40
2018-07-30T07:31:50.588Z,1008.65
2018-07-30T07:32:58.640Z,1008.65
2018-07-30T07:33:50.564Z,1008.50
2018-07-30T07:34:50.584Z,1008.62
2018-07-30T07:35:50.599Z,1008.69
2018-07-30T07:36:58.662Z,1008.62
2018-07-30T07:38:00.103Z,1008.79
2018-07-30T07:39:01.785Z,1008.88
2018-07-30T07:39:59.961Z,1008.78
2018-07-30T07:40:50.557Z,1008.62
2018-07-30T07:42:02.073Z,1008.65
2018-07-30T07:42:50.484Z,1008.66
2018-07-30T07:43:50.465Z,1008.65
2018-07-30T07:44:50.513Z,1008.62
2018-07-30T07:45:50.519Z,1008.62
2018-07-30T07:46:50.429Z,1008.58
2018-07-30T07:47:50.450Z,1008.59
2018-07-30T07:48:50.410Z,1008.63
2018-07-30T07:49:50.398Z,1008.63
2018-07-30T07:50:50.605Z,1008.63
2018-07-30T07:51:50.381Z,1008.66
2018-07-30T07:52:50.371Z,1008.77
2018-07-30T07:53:50.359Z,1008.58
2018-07-30T07:54:50.348Z,1008.64
2018-07-30T07:55:50.409Z,1008.60
2018-07-30T07:56:50.329Z,1008.60
2018-07-30T07:57:50.323Z,1008.64
2018-07-30T07:58:50.309Z,1008.61
2018-07-30T07:59:50.301Z,1008.61
2018-07-30T08:00:50.576Z,1008.65
2018-07-30T08:01:50.281Z,1008.64
2018-07-30T08:02:50.274Z,1008.67
2018-07-30T08:03:50.990Z,1008.63
2018-07-30T08:04:50.250Z,1008.60
2018-07-30T08:05:50.306Z,1008.62
2018-07-30T08:06:50.232Z,1008.60
2018-07-30T08:07:50.220Z,1008.59
2018-07-30T08:08:50.215Z,1008.66
2018-07-30T08:09:50.326Z,1008.68
2018-07-30T08:10:50.316Z,1008.66
2018-07-30T08:11:50.191Z,1008.69
2018-07-30T08:12:50.173Z,1008.62
2018-07-30T08:13:50.162Z,1008.56
2018-07-30T08:14:50.154Z,1008.58
2018-07-30T08:15:50.211Z,1008.59
2018-07-30T08:16:50.134Z,1008.58
2018-07-30T08:17:50.126Z,1008.58
2018-07-30T08:18:50.115Z,1008.56
2018-07-30T08:19:50.103Z,1008.64
2018-07-30T08:20:50.161Z,1008.63
2018-07-30T08:21:50.086Z,1008.67
2018-07-30T08:22:50.073Z,1008.60
2018-07-30T08:23:50.071Z,1008.64
2018-07-30T08:24:50.988Z,1008.60
2018-07-30T08:25:50.119Z,1008.58
2018-07-30T08:26:50.036Z,1008.58
2018-07-30T08:27:50.026Z,1008.54
2018-07-30T08:28:50.015Z,1008.59
2018-07-30T08:29:50.009Z,1008.53
2018-07-30T08:30:50.067Z,1008.53
2018-07-30T08:31:49.989Z,1008.51
2018-07-30T08:32:49.978Z,1008.51
2018-07-30T08:33:49.969Z,1008.46
2018-07-30T08:34:49.956Z,1008.48
2018-07-30T08:35:50.014Z,1008.39
2018-07-30T08:36:49.941Z,1008.43
2018-07-30T08:37:49.939Z,1008.52
2018-07-30T08:38:49.931Z,1008.43
2018-07-30T08:39:49.914Z,1008.48
2018-07-30T08:40:49.964Z,1008.49
2018-07-30T08:41:49.889Z,1008.45
2018-07-30T08:42:49.878Z,1008.50
2018-07-30T08:43:49.870Z,1008.49
2018-07-30T08:44:49.861Z,1008.56
2018-07-30T08:45:50.068Z,1008.53
2018-07-30T08:46:49.847Z,1008.50
2018-07-30T08:47:49.833Z,1008.49
2018-07-30T08:48:49.892Z,1008.54
2018-07-30T08:49:49.811Z,1008.55
2018-07-30T08:50:49.870Z,1008.65
2018-07-30T08:51:49.797Z,1008.58
2018-07-30T08:52:49.789Z,1008.52
2018-07-30T08:53:49.773Z,1008.66
2018-07-30T08:54:49.761Z,1008.62
2018-07-30T08:55:49.822Z,1008.62
2018-07-30T08:56:49.745Z,1008.60
2018-07-30T08:57:49.736Z,1008.57
2018-07-30T08:58:49.744Z,1008.55
2018-07-30T08:59:49.719Z,1008.53
2018-07-30T09:00:49.774Z,1008.56
2018-07-30T09:01:49.700Z,1008.81
2018-07-30T09:02:49.695Z,1008.63
2018-07-30T09:03:49.680Z,1008.61
2018-07-30T09:04:49.672Z,1008.75
2018-07-30T09:05:49.734Z,1008.70
2018-07-30T09:06:50.490Z,1008.93
2018-07-30T09:07:49.644Z,1008.82
2018-07-30T09:08:49.635Z,1008.75
2018-07-30T09:09:49.622Z,1008.71
2018-07-30T09:10:49.616Z,1008.69
2018-07-30T09:11:49.672Z,1008.75
2018-07-30T09:12:49.739Z,1008.67
2018-07-30T09:13:50.492Z,1008.81
2018-07-30T09:14:49.588Z,1008.86
2018-07-30T09:15:49.572Z,1008.96
2018-07-30T09:16:49.627Z,1008.82
2018-07-30T09:17:49.550Z,1008.76
2018-07-30T09:18:49.547Z,1008.73
2018-07-30T09:19:49.535Z,1008.79
2018-07-30T09:20:49.527Z,1008.71
2018-07-30T09:21:49.585Z,1008.68
2018-07-30T09:22:49.507Z,1008.72
2018-07-30T09:23:49.504Z,1008.72
2018-07-30T09:24:49.490Z,1008.71
2018-07-30T09:25:49.482Z,1008.77
2018-07-30T09:26:50.052Z,1008.89
2018-07-30T09:27:50.006Z,1008.77
2018-07-30T09:28:49.454Z,1008.72
2018-07-30T09:29:49.448Z,1008.82
2018-07-30T09:30:49.437Z,1008.75
2018-07-30T09:31:49.501Z,1008.65
2018-07-30T09:32:49.479Z,1008.51
2018-07-30T09:33:49.465Z,1008.44
2018-07-30T09:34:49.412Z,1008.45
2018-07-30T09:35:49.396Z,1008.43
2018-07-30T09:36:49.448Z,1008.45
2018-07-30T09:37:49.395Z,1008.44
2018-07-30T09:38:49.471Z,1008.44
2018-07-30T09:39:49.365Z,1008.41
2018-07-30T09:40:49.350Z,1008.49
2018-07-30T09:41:49.411Z,1008.64
2018-07-30T09:42:49.334Z,1008.96
2018-07-30T09:43:49.327Z,1009.09
2018-07-30T09:44:49.331Z,1008.83
2018-07-30T09:45:49.306Z,1009.08
2018-07-30T09:46:49.377Z,1009.12
2018-07-30T09:47:49.292Z,1008.82
2018-07-30T09:48:49.994Z,1008.73
2018-07-30T09:49:49.275Z,1008.76
2018-07-30T09:50:49.272Z,1008.97
2018-07-30T09:51:49.330Z,1009.10
2018-07-30T09:52:49.252Z,1009.05
2018-07-30T09:53:49.242Z,1009.09
2018-07-30T09:54:49.236Z,1009.04
2018-07-30T09:55:49.229Z,1009.00
2018-07-30T09:56:49.292Z,1009.03
2018-07-30T09:57:49.211Z,1009.02
2018-07-30T09:58:49.202Z,1009.03
2018-07-30T09:59:49.197Z,1009.01
2018-07-30T10:00:49.188Z,1008.96
2018-07-30T10:01:49.246Z,1009.04
2018-07-30T10:02:49.180Z,1009.02
2018-07-30T10:03:49.173Z,1009.05
2018-07-30T10:04:49.171Z,1009.04
2018-07-30T10:05:49.154Z,1009.00
2018-07-30T10:06:49.212Z,1009.02
2018-07-30T10:07:49.140Z,1009.02
2018-07-30T10:08:49.135Z,1009.10
2018-07-30T10:09:49.990Z,1009.06
2018-07-30T10:10:49.121Z,1009.02
2018-07-30T10:11:49.277Z,1009.02
2018-07-30T10:12:49.103Z,1009.01
2018-07-30T10:13:49.100Z,1009.01
2018-07-30T10:14:49.097Z,1009.01
2018-07-30T10:15:49.086Z,1008.94
2018-07-30T10:16:49.152Z,1009.05
2018-07-30T10:17:49.087Z,1009.03
2018-07-30T10:18:49.066Z,1008.97
2018-07-30T10:19:49.068Z,1008.99
2018-07-30T10:20:49.054Z,1008.99
2018-07-30T10:21:49.113Z,1009.00
2018-07-30T10:22:49.043Z,1008.96
2018-07-30T10:23:49.080Z,1009.05
2018-07-30T10:24:49.031Z,1009.05
2018-07-30T10:25:49.026Z,1009.00
2018-07-30T10:26:49.087Z,1009.06
2018-07-30T10:27:49.013Z,1008.90
2018-07-30T10:28:49.024Z,1008.95
2018-07-30T10:29:49.000Z,1008.95
2018-07-30T10:30:50.054Z,1008.47
2018-07-30T10:31:49.057Z,1008.20
2018-07-30T10:32:48.977Z,1008.19
2018-07-30T10:33:48.974Z,1008.11
2018-07-30T10:34:48.976Z,1008.08
2018-07-30T10:35:48.966Z,1008.00
2018-07-30T10:36:49.011Z,1007.95
2018-07-30T10:37:48.941Z,1008.79
2018-07-30T10:38:48.938Z,1008.80
2018-07-30T10:39:48.965Z,1008.83
2018-07-30T10:40:48.945Z,1008.89
2018-07-30T10:41:49.000Z,1008.87
2018-07-30T10:42:48.916Z,1008.89
2018-07-30T10:43:48.957Z,1008.86
2018-07-30T10:44:48.898Z,1008.85
2018-07-30T10:45:48.892Z,1008.87
2018-07-30T10:46:48.950Z,1008.80
2018-07-30T10:47:48.881Z,1008.82
2018-07-30T10:48:48.875Z,1008.83
2018-07-30T10:49:48.863Z,1007.98
2018-07-30T10:50:48.889Z,1008.73
2018-07-30T10:51:49.112Z,1008.75
2018-07-30T10:52:48.849Z,1007.95
2018-07-30T10:53:48.897Z,1007.81
2018-07-30T10:54:56.981Z,1008.47
2018-07-30T10:55:48.872Z,1007.89
2018-07-30T10:56:48.887Z,1008.49
2018-07-30T10:57:48.815Z,1008.55
2018-07-30T10:58:48.830Z,1007.74
2018-07-30T10:59:48.800Z,1007.64
2018-07-30T11:00:48.792Z,1007.63
2018-07-30T11:01:48.866Z,1007.63
2018-07-30T11:02:48.776Z,1007.68
2018-07-30T11:03:48.781Z,1007.58
2018-07-30T11:04:48.766Z,1007.63
2018-07-30T11:05:48.761Z,1007.57
2018-07-30T11:06:48.818Z,1007.64
2018-07-30T11:07:48.764Z,1007.57
2018-07-30T11:08:48.736Z,1007.58
2018-07-30T11:09:48.817Z,1008.21
2018-07-30T11:10:48.722Z,1008.24
2018-07-30T11:11:48.716Z,1008.17
2018-07-30T11:12:48.767Z,1008.22
2018-07-30T11:13:48.690Z,1007.54
2018-07-30T11:14:48.697Z,1007.43
2018-07-30T11:15:49.501Z,1007.41
2018-07-30T11:16:48.668Z,1007.45
2018-07-30T11:17:48.730Z,1007.49
2018-07-30T11:18:48.656Z,1007.51
2018-07-30T11:19:48.643Z,1007.47
2018-07-30T11:20:57.538Z,1007.53
2018-07-30T11:21:56.807Z,1007.52
2018-07-30T11:22:56.753Z,1007.47
2018-07-30T11:23:56.753Z,1007.48
2018-07-30T11:24:56.784Z,1007.43
2018-07-30T11:25:48.672Z,1007.45
2018-07-30T11:26:48.762Z,1007.37
2018-07-30T11:27:48.644Z,1007.36
2018-07-30T11:28:57.001Z,1007.35
2018-07-30T11:29:56.692Z,1007.29
2018-07-30T11:30:56.712Z,1007.30
2018-07-30T11:31:57.120Z,1007.29
2018-07-30T11:32:52.854Z,1007.33
2018-07-30T11:33:56.054Z,1007.30
2018-07-30T11:34:48.512Z,1007.69
2018-07-30T11:35:48.501Z,1007.43
2018-07-30T11:36:48.892Z,1007.36
2018-07-30T11:37:48.552Z,1007.34
2018-07-30T11:38:48.779Z,1007.30
2018-07-30T11:39:48.488Z,1007.89
2018-07-30T11:40:48.670Z,1007.85
2018-07-30T11:41:48.639Z,1007.34
2018-07-30T11:42:48.921Z,1007.52
2018-07-30T11:43:48.627Z,1008.03
2018-07-30T11:44:48.425Z,1008.08
2018-07-30T11:45:48.485Z,1007.41
2018-07-30T11:46:48.414Z,1007.30
2018-07-30T11:47:48.461Z,1007.32
2018-07-30T11:48:48.484Z,1007.25
2018-07-30T11:49:48.407Z,1007.27
2018-07-30T11:50:48.371Z,1007.23
2018-07-30T11:51:48.364Z,1007.27
2018-07-30T11:52:48.427Z,1007.52
2018-07-30T11:53:48.344Z,1007.24
2018-07-30T11:54:50.875Z,1007.21
2018-07-30T11:55:48.335Z,1007.28
2018-07-30T11:56:48.316Z,1007.29
2018-07-30T11:57:49.375Z,1007.92
2018-07-30T11:58:48.302Z,1007.85
2018-07-30T11:59:48.294Z,1007.29
2018-07-30T12:00:48.323Z,1007.17
2018-07-30T12:01:48.336Z,1007.62
2018-07-30T12:02:48.334Z,1007.99
2018-07-30T12:03:48.260Z,1007.48
2018-07-30T12:04:48.257Z,1007.31
2018-07-30T12:05:48.250Z,1007.31